RAMO2: Caney River, Ramona, OK

                                SHEF ID:       RAMO2     Caney River near Ramona, OK
STATION TYPE:
Regulating: Stage = 26.00, Flow = 15426

PRECIP STAGE STAGE(2) RIV-FLOW VOLTAGE BAT-LOAD
in ft ft cfs volt volt
Ccp-Rev Ccp-Rev Ccp-Rev Ccp-Rev Ccp-Rev Ccp-Rev
(America/Chicago)
05/01 00:00 0.00 7.68 99999.00 2768 12.90 ----
05/01 01:00 0.00 7.68 99999.00 2768 12.80 ----
05/01 02:00 0.00 7.66 99999.00 2756 12.80 ----
05/01 03:00 0.00 7.64 99999.00 2745 12.80 ----
05/01 04:00 0.00 7.60 99999.00 2721 12.80 ----
05/01 05:00 0.00 7.57 99999.00 2704 12.70 ----
05/01 06:00 0.00 7.51 99999.00 2669 12.70 ----
05/01 07:00 0.00 7.46 99999.00 2639 12.70 ----
05/01 08:00 0.00 7.39 99999.00 2598 12.90 ----
05/01 09:00 0.00 7.33 99999.00 2563 13.50 ----
05/01 10:00 0.00 7.24 99999.00 2511 13.60 ----
05/01 11:00 0.00 7.16 99999.00 2464 13.60 ----
05/01 12:00 0.00 7.11 99999.00 2435 13.60 ----
05/01 13:00 0.00 6.99 99999.00 2365 13.60 ----
05/01 14:00 0.00 6.92 99999.00 2325 13.60 ----
05/01 15:00 0.00 6.83 99999.00 2272 13.60 ----
05/01 16:00 0.00 6.75 99999.00 2226 13.60 ----
05/01 17:00 0.00 6.71 99999.00 2203 13.60 ----
05/01 18:00 0.00 6.63 99999.00 2156 13.60 ----
05/01 19:00 0.00 6.58 99999.00 2127 13.30 ----
05/01 20:00 0.00 6.54 99999.00 2104 13.10 ----
05/01 21:00 0.00 6.48 99999.00 2069 12.90 ----
05/01 22:00 0.00 6.44 99999.00 2046 12.90 ----
05/01 23:00 ---- ---- ---- ---- ---- ----
Data processed at Sat 02May2026 03:01 GMT

NOTICE: If you are parsing this page

Please convert to using our Data API. Starting early 2026 we will be migrating to: https://water.usace.army.mil with modern pages rendered in JavaScript. When this migration completes you will no longer be able to scrape this page! CWMSDataAPI (CDA)

Timeseries IDs (TSIDs)

TSIDs used from left to right in the data table
RAMO.Precip-Inc.Total.1Hour.1Hour.Ccp-Rev
RAMO.Stage.Inst.1Hour.0.Ccp-Rev
RAMO.Stage-Alt.Inst.1Hour.0.Ccp-Rev
RAMO.Flow.Inst.1Hour.0.Ccp-Rev
RAMO.Volt-Battery.Inst.1Hour.0.Ccp-Rev
RAMO.Volt-Battery Load.Inst.1Hour.0.Ccp-Rev

                            

All information presented herein is the property of the government of the United States of America and may be revised or deleted at any time without prior notice. Dissemination of this information without the expressed written consent of the Public Affairs Office, Tulsa District U.S. Army Corps of Engineers is strictly prohibited. These data are gathered electronically and, as presented, have NOT undergone any form of quality control. These data are NOT guaranteed to be valid or correct.